createdAt,value
2022-10-17T00:03:47.305Z,12.65
2022-10-17T00:08:49.942Z,12.69
2022-10-17T00:13:54.793Z,12.74
2022-10-17T00:18:57.200Z,12.75
2022-10-17T00:24:00.492Z,12.71
2022-10-17T00:29:02.997Z,12.64
2022-10-17T00:34:05.415Z,12.56
2022-10-17T00:39:07.792Z,12.48
2022-10-17T00:44:13.089Z,12.45
2022-10-17T00:49:15.454Z,12.43
2022-10-17T00:54:20.617Z,12.40
2022-10-17T00:59:23.687Z,12.32
2022-10-17T01:04:26.215Z,12.29
2022-10-17T01:09:28.844Z,12.27
2022-10-17T01:14:34.180Z,12.26
2022-10-17T01:19:39.505Z,12.23
2022-10-17T01:24:44.813Z,12.23
2022-10-17T01:29:52.742Z,12.26
2022-10-17T01:34:58.156Z,12.28
2022-10-17T01:40:03.461Z,12.29
2022-10-17T01:45:06.969Z,12.25
2022-10-17T01:50:15.142Z,12.21
2022-10-17T01:55:20.389Z,12.14
2022-10-17T02:00:23.681Z,12.04
2022-10-17T02:05:32.003Z,11.95
2022-10-17T02:10:41.084Z,11.85
2022-10-17T02:15:46.453Z,11.73
2022-10-17T02:20:48.809Z,11.61
2022-10-17T02:25:55.589Z,11.50
2022-10-17T02:31:00.644Z,11.36
2022-10-17T02:36:06.301Z,11.22
2022-10-17T02:41:10.970Z,11.08
2022-10-17T02:46:21.069Z,10.92
2022-10-17T02:51:29.614Z,10.78
2022-10-17T02:56:39.798Z,10.66
2022-10-17T03:01:42.381Z,10.48
2022-10-17T03:06:46.154Z,10.28
2022-10-17T03:11:48.524Z,10.18
2022-10-17T03:16:50.944Z,10.13
2022-10-17T03:21:53.540Z,10.08
2022-10-17T03:26:55.954Z,10.01
2022-10-17T03:31:58.503Z,9.94
2022-10-17T03:37:00.947Z,9.88
2022-10-17T03:42:03.405Z,9.82
2022-10-17T03:47:08.157Z,9.74
2022-10-17T03:52:13.595Z,9.60
2022-10-17T03:57:15.972Z,9.54
2022-10-17T04:02:18.378Z,9.53
2022-10-17T04:07:20.871Z,9.52
2022-10-17T04:12:23.241Z,9.46
2022-10-17T04:17:25.684Z,9.24
2022-10-17T04:22:28.391Z,9.10
2022-10-17T04:27:30.939Z,8.97
2022-10-17T04:32:36.498Z,8.94
2022-10-17T04:37:38.853Z,8.92
2022-10-17T04:42:41.271Z,8.89
2022-10-17T04:47:43.794Z,8.83
2022-10-17T04:52:46.184Z,8.79
2022-10-17T04:57:48.551Z,8.78
2022-10-17T05:02:51.100Z,8.83
2022-10-17T05:07:53.493Z,8.92
2022-10-17T05:12:55.889Z,8.98
2022-10-17T05:17:58.339Z,9.03
2022-10-17T05:23:01.023Z,9.08
2022-10-17T05:28:03.545Z,9.11
2022-10-17T05:33:05.956Z,9.13
2022-10-17T05:38:08.356Z,9.10
2022-10-17T05:43:10.780Z,9.10
2022-10-17T05:48:14.003Z,9.21
2022-10-17T05:53:20.080Z,9.43
2022-10-17T05:58:45.441Z,9.55
2022-10-17T06:03:46.670Z,9.69
2022-10-17T06:08:49.193Z,9.87
2022-10-17T06:13:51.599Z,10.06
2022-10-17T06:18:54.020Z,10.26
2022-10-17T06:23:56.474Z,10.45
2022-10-17T06:28:58.950Z,10.69
2022-10-17T06:34:01.409Z,10.97
2022-10-17T06:39:03.903Z,11.24
2022-10-17T06:44:10.920Z,11.57
2022-10-17T06:49:13.428Z,11.89
2022-10-17T06:54:15.835Z,12.29
2022-10-17T06:59:18.277Z,12.72
2022-10-17T07:04:20.686Z,13.15
2022-10-17T07:09:24.157Z,13.56
2022-10-17T07:14:31.891Z,13.87
2022-10-17T07:19:34.366Z,14.11
2022-10-17T07:24:37.055Z,14.32
2022-10-17T07:29:39.505Z,14.51
2022-10-17T07:34:41.960Z,14.74
2022-10-17T07:39:44.328Z,15.00
2022-10-17T07:44:47.521Z,15.25
2022-10-17T07:49:50.090Z,15.44
2022-10-17T07:54:52.574Z,15.68
2022-10-17T07:59:55.131Z,15.98
2022-10-17T08:04:57.562Z,16.10
2022-10-17T08:10:01.254Z,16.27
2022-10-17T08:15:05.326Z,16.43
2022-10-17T08:20:08.832Z,16.56
2022-10-17T08:25:12.068Z,16.73
2022-10-17T08:30:15.409Z,17.00
2022-10-17T08:35:18.009Z,17.31
2022-10-17T08:40:25.963Z,17.62
2022-10-17T08:45:35.659Z,17.88
2022-10-17T08:50:42.430Z,17.81
2022-10-17T08:55:48.791Z,17.69
2022-10-17T09:00:59.812Z,17.65
2022-10-17T09:06:11.017Z,17.78
2022-10-17T09:11:20.272Z,18.01
2022-10-17T09:16:25.958Z,18.46
2022-10-17T09:21:35.530Z,18.75
2022-10-17T09:26:39.421Z,19.05
2022-10-17T09:31:45.609Z,19.26
2022-10-17T09:36:49.145Z,19.42
2022-10-17T09:41:53.295Z,19.59
2022-10-17T09:47:01.388Z,19.69
2022-10-17T09:52:05.375Z,19.83
2022-10-17T09:57:08.866Z,20.01
2022-10-17T10:02:12.209Z,20.24
2022-10-17T10:07:14.610Z,20.47
2022-10-17T10:12:18.684Z,20.67
2022-10-17T10:17:24.027Z,20.69
2022-10-17T10:22:26.523Z,20.70
2022-10-17T10:27:29.492Z,20.76
2022-10-17T10:32:33.748Z,20.84
2022-10-17T10:37:37.085Z,20.96
2022-10-17T10:42:40.307Z,21.12
2022-10-17T10:47:45.739Z,21.25
2022-10-17T10:52:55.173Z,21.39
2022-10-17T10:57:59.958Z,21.50
2022-10-17T11:03:07.549Z,21.60
2022-10-17T11:08:18.275Z,21.73
2022-10-17T11:13:23.654Z,21.92
2022-10-17T11:18:28.943Z,22.01
2022-10-17T11:23:38.487Z,22.15
2022-10-17T11:28:41.333Z,22.37
2022-10-17T11:33:46.081Z,22.51
2022-10-17T11:38:53.299Z,22.63
2022-10-17T11:43:59.581Z,22.79
2022-10-17T11:49:06.483Z,22.89
2022-10-17T11:54:13.723Z,22.92
2022-10-17T11:59:19.112Z,23.05
2022-10-17T12:04:22.713Z,23.13
2022-10-17T12:09:28.112Z,23.15
2022-10-17T12:14:33.470Z,23.28
2022-10-17T12:19:37.340Z,23.42
2022-10-17T12:24:42.661Z,23.59
2022-10-17T12:29:45.189Z,23.71
2022-10-17T12:34:50.551Z,23.71
2022-10-17T12:39:53.074Z,23.96
2022-10-17T12:44:55.486Z,24.36
2022-10-17T12:49:57.909Z,24.65
2022-10-17T12:55:14.958Z,24.59
2022-10-17T13:00:18.334Z,24.39
2022-10-17T13:05:23.696Z,24.26
2022-10-17T13:10:28.442Z,24.18
2022-10-17T13:15:31.092Z,23.95
2022-10-17T13:20:33.586Z,23.67
2022-10-17T13:25:38.905Z,23.49
2022-10-17T13:30:45.585Z,23.31
2022-10-17T13:36:00.010Z,23.02
2022-10-17T13:41:30.099Z,22.83
2022-10-17T13:46:37.406Z,22.74
2022-10-17T13:51:44.917Z,22.68
2022-10-17T14:01:57.663Z,22.48
2022-10-17T14:07:00.049Z,22.42
2022-10-17T14:12:16.528Z,22.63
2022-10-17T14:17:23.647Z,23.00
2022-10-17T14:22:27.469Z,23.16
2022-10-17T14:27:31.844Z,23.31
2022-10-17T14:32:36.094Z,23.21
2022-10-17T14:37:43.857Z,22.90
2022-10-17T14:42:46.869Z,22.47
2022-10-17T14:47:51.634Z,22.11
2022-10-17T14:52:57.109Z,21.73
2022-10-17T14:57:59.589Z,21.41
2022-10-17T15:03:02.047Z,21.13
2022-10-17T15:08:05.865Z,20.88
2022-10-17T15:13:27.211Z,20.63
2022-10-17T15:18:29.857Z,20.33
2022-10-17T15:23:32.333Z,19.99
2022-10-17T15:28:34.822Z,19.67
2022-10-17T15:33:37.262Z,19.29
2022-10-17T15:38:39.730Z,18.99
2022-10-17T15:43:42.162Z,18.70
2022-10-17T15:48:45.102Z,18.42
2022-10-17T15:53:47.691Z,18.17
2022-10-17T15:58:50.809Z,17.96
2022-10-17T16:03:53.811Z,17.79
2022-10-17T16:08:56.280Z,17.59
2022-10-17T16:14:02.320Z,17.45
2022-10-17T16:19:04.777Z,17.32
2022-10-17T16:24:09.652Z,17.21
2022-10-17T16:29:12.158Z,17.10
2022-10-17T16:34:15.185Z,16.97
2022-10-17T16:39:17.760Z,16.87
2022-10-17T16:44:20.393Z,16.78
2022-10-17T16:49:22.802Z,16.73
2022-10-17T16:54:25.270Z,16.68
2022-10-17T16:59:27.942Z,16.58
2022-10-17T17:04:30.341Z,16.50
2022-10-17T17:09:32.749Z,16.46
2022-10-17T17:14:35.224Z,16.44
2022-10-17T17:19:37.665Z,16.40
2022-10-17T17:24:40.178Z,16.34
2022-10-17T17:29:42.592Z,16.27
2022-10-17T17:34:44.989Z,16.23
2022-10-17T17:39:47.427Z,16.27
2022-10-17T17:44:49.889Z,16.37
2022-10-17T17:49:52.278Z,16.52
2022-10-17T17:54:54.865Z,16.73
2022-10-17T17:59:57.340Z,16.93
2022-10-17T18:04:59.719Z,17.13
2022-10-17T18:10:02.282Z,17.27
2022-10-17T18:15:05.637Z,17.39
2022-10-17T18:20:08.438Z,17.48
2022-10-17T18:25:11.042Z,17.59
2022-10-17T18:30:14.094Z,17.70
2022-10-17T18:35:16.476Z,17.80
2022-10-17T18:40:18.867Z,17.87
2022-10-17T18:45:21.478Z,17.94
2022-10-17T18:50:24.634Z,18.02
2022-10-17T18:55:27.194Z,18.03
2022-10-17T19:00:30.546Z,17.98
2022-10-17T19:05:33.974Z,17.93
2022-10-17T19:10:37.543Z,17.88
2022-10-17T19:15:40.034Z,17.87
2022-10-17T19:20:42.482Z,17.85
2022-10-17T19:25:44.870Z,17.82
2022-10-17T19:30:47.222Z,17.78
2022-10-17T19:35:52.537Z,17.75
2022-10-17T19:40:55.047Z,17.77
2022-10-17T19:45:59.197Z,17.77
2022-10-17T19:51:01.597Z,17.73
2022-10-17T19:56:04.594Z,17.64
2022-10-17T20:01:07.038Z,17.57
2022-10-17T20:06:10.009Z,17.51
2022-10-17T20:11:13.529Z,17.44
2022-10-17T20:16:17.598Z,17.42
2022-10-17T20:21:22.559Z,17.42
2022-10-17T20:26:36.978Z,17.41
2022-10-17T20:31:41.736Z,17.39
2022-10-17T20:36:44.185Z,17.37
2022-10-17T20:41:46.897Z,17.34
2022-10-17T20:47:01.188Z,17.30
2022-10-17T20:52:06.837Z,17.27
2022-10-17T20:57:09.209Z,17.23
2022-10-17T21:02:12.435Z,17.19
2022-10-17T21:07:15.188Z,17.15
2022-10-17T21:12:26.054Z,17.08
2022-10-17T21:17:33.926Z,16.99
2022-10-17T21:22:36.331Z,16.94
2022-10-17T21:27:38.784Z,16.94
2022-10-17T21:32:55.796Z,16.92
2022-10-17T21:37:59.103Z,16.86
2022-10-17T21:43:01.448Z,16.77
2022-10-17T21:48:12.829Z,16.69
2022-10-17T21:53:15.880Z,16.59
2022-10-17T21:58:19.340Z,16.49
2022-10-17T22:03:21.706Z,16.38
2022-10-17T22:08:25.672Z,16.30
2022-10-17T22:13:28.274Z,16.25
2022-10-17T22:18:30.868Z,16.18
2022-10-17T22:23:34.206Z,16.14
2022-10-17T22:28:37.113Z,16.08
2022-10-17T22:33:39.871Z,16.03
2022-10-17T22:38:42.254Z,16.00
2022-10-17T22:43:44.649Z,15.92
2022-10-17T22:48:47.214Z,15.85
2022-10-17T22:53:49.618Z,15.80
2022-10-17T22:58:52.236Z,15.75
2022-10-17T23:03:54.679Z,15.68
2022-10-17T23:08:57.077Z,15.62
2022-10-17T23:13:59.512Z,15.60
2022-10-17T23:19:02.051Z,15.59
2022-10-17T23:24:04.680Z,15.57
2022-10-17T23:29:07.180Z,15.53
2022-10-17T23:34:09.862Z,15.50
2022-10-17T23:39:12.621Z,15.49
2022-10-17T23:44:15.052Z,15.50
2022-10-17T23:49:17.422Z,15.46
2022-10-17T23:54:19.803Z,15.41
2022-10-17T23:59:22.316Z,15.38
